Tiempo atmosférico en la estación meteorológica de Alosno, Huelva (276 m.)



Fecha
DESCASC
Temp. máxima en grados centígrados (hora)
DESCASC
Temp. mínima en grados centígrados (hora)
DESCASC
Temp. media en grados centígrados
DESCASC
Racha de viento máxima en m/sg (hora)
DESCASC
Velocidad máxima media en intervalos de 10 minutos(hora)
DESCASC
Precipitaciones diarias en mm
DESCASC
Precipitaciones de 00:00 a 06:00 en mm
DESCASC
Precipitaciones de 06:00 a 12:00 en mm
DESCASC
Precipitaciones de 12:00 a 18:00 en mm
DESCASC
Precipitaciones de 18:00 a 24:00 en mm
DESCASC

Gráficas

Temp. máximas Temp. mínimas Temp. medias Precipitaciones Rachas de viento máximas Velocidades máximas media en intervalos de 10 minutos

Datos horarios

Fecha y hora oficial Temperatura (ºC) Velocidad del viento (km/h) Dirección del viento Racha (km/h) Dirección de racha Precipitación (mm) Presión (hPa) Tendencia (hPa) Humedad (%)
2019-08-22 23:00:00 25.8 14 Sudoeste 24 Sudoeste 0 -- -- 54
2019-08-22 22:00:00 26.5 17 Sudoeste 32 Sur 0 -- -- 53
2019-08-22 21:00:00 27.9 27 Sur 39 Sudoeste 0 -- -- 51
2019-08-22 20:00:00 29.8 25 Sudoeste 40 Sur 0 -- -- 46
2019-08-22 19:00:00 33.2 22 Sur 36 Este 0 -- -- 40
2019-08-22 18:00:00 35.3 15 Sudeste 41 Este 0 -- -- 31
2019-08-22 17:00:00 35.2 14 Este 35 Este 0 -- -- 32
2019-08-22 16:00:00 35.1 13 Este 37 Este 0 -- -- 33
2019-08-22 15:00:00 34.4 14 Este 38 Este 0 -- -- 35
2019-08-22 14:00:00 32.6 11 Este 23 Este 0 -- -- 41
2019-08-22 13:00:00 31.1 6 Sudeste 18 Este 0 -- -- 44
2019-08-22 12:00:00 29.3 8 Sudeste 15 Este 0 -- -- 48
2019-08-22 11:00:00 27.3 7 Este 13 Nordeste 0 -- -- 55
2019-08-22 10:00:00 25.1 5 Este 11 Este 0 -- -- 58
2019-08-22 09:00:00 22.4 6 Este 9 Este 0 -- -- 60
2019-08-22 08:00:00 20.8 2 Norte 6 Nordeste 0 -- -- 62
2019-08-22 07:00:00 21.4 4 Nordeste 10 Sur 0 -- -- 61
2019-08-22 06:00:00 22.4 5 Sur 12 Sur 0 -- -- 68
2019-08-22 05:00:00 22.6 3 Sudoeste 13 Sur 0 -- -- 49
2019-08-22 04:00:00 22.7 10 Sur 15 Oeste 0 -- -- 45
2019-08-22 03:00:00 23.6 11 Oeste 15 Oeste 0 -- -- 44
2019-08-22 02:00:00 24 11 Oeste 16 Oeste 0 -- -- 44
2019-08-22 01:00:00 24.9 9 Oeste 13 Oeste 0 -- -- 43
2019-08-22 00:00:00 25.4 6 Oeste 16 Sudoeste 0 -- -- 57
2019-08-21 23:00:00 26.1 11 Sudoeste 26 Sudoeste 0 -- -- 62
2019-08-21 22:00:00 26.7 20 Sudoeste 31 Sudoeste 0 -- -- 61
2019-08-21 21:00:00 28.6 25 Sudoeste 35 Sur 0 -- -- 51
2019-08-21 20:00:00 30.9 23 Sudoeste 37 Sudoeste 0 -- -- 44
2019-08-21 19:00:00 33.2 13 Oeste 30 Noroeste 0 -- -- 37
2019-08-21 18:00:00 32.8 15 Oeste 27 Oeste 0 -- -- 38
2019-08-21 17:00:00 33.1 12 Oeste 23 Sur 0 -- -- 37
2019-08-21 16:00:00 32.5 8 Sudeste 22 Sur 0 -- -- 34
2019-08-21 15:00:00 32.1 8 Sur 24 Sudoeste 0 -- -- 38
2019-08-21 14:00:00 30.9 9 Sur 21 Sur 0 -- -- 42
2019-08-21 13:00:00 29 9 Sur 23 Sudoeste 0 -- -- 50
2019-08-21 12:00:00 26.9 14 Sur 29 Sur 0 -- -- 59
2019-08-21 11:00:00 25.4 15 Sur 26 Sudeste 0 -- -- 64
2019-08-21 10:00:00 23.5 11 Sur 19 Sur 0 -- -- 69
2019-08-21 09:00:00 20.3 4 Este 6 Nordeste 0 -- -- 58
2019-08-21 08:00:00 17.9 4 Este 5 Nordeste 0 -- -- 66
2019-08-21 07:00:00 18 2 Norte 5 Noroeste 0 -- -- 63
2019-08-21 06:00:00 18.9 0 Calma 6 Sudoeste 0 -- -- 62
2019-08-21 05:00:00 19.9 2 Sur 13 Oeste 0 -- -- 58
2019-08-21 04:00:00 20.4 13 Noroeste 19 Noroeste 0 -- -- 61
2019-08-21 03:00:00 21 8 Noroeste 15 Noroeste 0 -- -- 60
2019-08-21 02:00:00 21.4 7 Noroeste 14 Noroeste 0 -- -- 58
2019-08-21 01:00:00 22.7 8 Noroeste 18 Noroeste 0 -- -- 53
2019-08-21 00:00:00 24.2 12 Noroeste 19 Oeste 0 -- -- 47
2019-08-20 23:00:00 25.4 11 Sudoeste 15 Sudoeste 0 -- -- 34
2019-08-20 22:00:00 25.9 12 Sudoeste 27 Sur 0 -- -- 31
2019-08-20 21:00:00 27.9 22 Sur 31 Sur 0 -- -- 28
2019-08-20 20:00:00 30.9 19 Sudoeste 36 Sur 0 -- -- 24
2019-08-20 19:00:00 31.4 26 Sur 38 Sur 0 -- -- 26
2019-08-20 18:00:00 33.5 5 Norte 18 Norte 0 -- -- 20
2019-08-20 17:00:00 32.8 5 Norte 20 Oeste 0 -- -- 20
2019-08-20 16:00:00 32.4 7 Este 14 Nordeste 0 -- -- 20
2019-08-20 15:00:00 30.9 7 Sur 13 Oeste 0 -- -- 20
2019-08-20 14:00:00 27.8 8 Noroeste 18 Norte 0 -- -- 29
2019-08-20 13:00:00 25.3 10 Noroeste 21 Noroeste 0 -- -- 38
2019-08-20 12:00:00 22.3 13 Noroeste 26 Noroeste 0 -- -- 53
2019-08-20 11:00:00 19.2 13 Noroeste 30 Noroeste 0 -- -- 66
2019-08-20 10:00:00 17 18 Noroeste 33 Noroeste 0 -- -- 75
2019-08-20 09:00:00 15.5 18 Noroeste 31 Noroeste 0 -- -- 81
2019-08-20 08:00:00 15.1 18 Noroeste 27 Noroeste 0 -- -- 80
2019-08-20 07:00:00 15.5 17 Noroeste 32 Norte 0 -- -- 77
2019-08-20 06:00:00 15.6 16 Noroeste 24 Noroeste 0 -- -- 74
2019-08-20 05:00:00 16.2 15 Noroeste 27 Noroeste 0 -- -- 69
2019-08-20 04:00:00 17.2 19 Noroeste 28 Noroeste 0 -- -- 63
2019-08-20 03:00:00 18.1 18 Noroeste 33 Noroeste 0 -- -- 59
2019-08-20 02:00:00 19.2 22 Noroeste 34 Noroeste 0 -- -- 54
2019-08-20 01:00:00 20.3 19 Noroeste 33 Noroeste 0 -- -- 51
2019-08-20 00:00:00 22 21 Noroeste 35 Noroeste 0 -- -- 44
2019-08-19 23:00:00 24.1 26 Noroeste 39 Noroeste 0 -- -- 40
2019-08-19 22:00:00 26.5 9 Noroeste 21 Noroeste 0 -- -- 28
2019-08-19 21:00:00 29 13 Noroeste 25 Noroeste 0 -- -- 24
2019-08-19 20:00:00 30.5 17 Noroeste 28 Noroeste 0 -- -- 19
2019-08-19 19:00:00 31.5 17 Noroeste 36 Noroeste 0 -- -- 17
2019-08-19 18:00:00 31.8 16 Noroeste 29 Noroeste 0 -- -- 19
2019-08-19 17:00:00 31.5 15 Oeste 31 Oeste 0 -- -- 20
2019-08-19 16:00:00 30.8 16 Noroeste 30 Oeste 0 -- -- 21
2019-08-19 15:00:00 29.7 13 Noroeste 26 Noroeste 0 -- -- 24
2019-08-19 14:00:00 28.8 14 Noroeste 31 Noroeste 0 -- -- 22
2019-08-19 13:00:00 27.3 16 Noroeste 28 Noroeste 0 -- -- 27
2019-08-19 12:00:00 24.9 14 Noroeste 27 Oeste 0 -- -- 37
2019-08-19 11:00:00 21.8 14 Noroeste 22 Noroeste 0 -- -- 51
2019-08-19 10:00:00 19.7 13 Noroeste 31 Noroeste 0 -- -- 58
2019-08-19 09:00:00 17.6 19 Noroeste 32 Noroeste 0 -- -- 66
2019-08-19 08:00:00 17.4 16 Noroeste 35 Noroeste 0 -- -- 68
2019-08-19 07:00:00 18.5 23 Noroeste 33 Noroeste 0 -- -- 73
2019-08-19 06:00:00 19.7 16 Noroeste 25 Noroeste 0 -- -- 78
2019-08-19 05:00:00 20.6 14 Noroeste 25 Noroeste 0 -- -- 78
2019-08-19 04:00:00 21.5 13 Noroeste 26 Noroeste 0 -- -- 79
2019-08-19 03:00:00 21.9 15 Noroeste 25 Noroeste 0 -- -- 81
2019-08-19 02:00:00 22.4 14 Noroeste 28 Noroeste 0 -- -- 80
2019-08-19 01:00:00 23.1 21 Noroeste 30 Noroeste 0 -- -- 77
2019-08-19 00:00:00 24.1 20 Noroeste 29 Noroeste 0 -- -- 73
2019-08-18 23:00:00 25.9 17 Noroeste 36 Noroeste 0 -- -- 64
2019-08-18 22:00:00 28.7 21 Noroeste 33 Noroeste 0 -- -- 51
2019-08-18 21:00:00 31.1 18 Noroeste 28 Noroeste 0 -- -- 36
2019-08-18 20:00:00 32.7 16 Noroeste 31 Noroeste 0 -- -- 28
2019-08-18 19:00:00 33.1 20 Noroeste 36 Noroeste 0 -- -- 30
2019-08-18 18:00:00 33.4 18 Noroeste 32 Oeste 0 -- -- 29
2019-08-18 17:00:00 33.3 18 Noroeste 32 Noroeste 0 -- -- 30
2019-08-18 16:00:00 32.8 17 Noroeste 29 Noroeste 0 -- -- 29
2019-08-18 15:00:00 31.3 17 Noroeste 38 Noroeste 0 -- -- 31
2019-08-18 14:00:00 29.8 19 Noroeste 32 Norte 0 -- -- 37
2019-08-18 13:00:00 28.1 20 Noroeste 32 Noroeste 0 -- -- 45
2019-08-18 12:00:00 25.6 18 Noroeste 35 Noroeste 0 -- -- 53
2019-08-18 11:00:00 22.2 17 Noroeste 33 Noroeste 0 -- -- 69
2019-08-18 10:00:00 19.9 24 Noroeste 34 Noroeste 0 -- -- 78
2019-08-18 09:00:00 18 22 Noroeste 38 Noroeste 0 -- -- 86
2019-08-18 08:00:00 17.4 21 Noroeste 29 Noroeste 0 -- -- 87
2019-08-18 07:00:00 18.1 18 Noroeste 29 Noroeste 0 -- -- 81
2019-08-18 06:00:00 18.7 17 Noroeste 29 Noroeste 0 -- -- 79
2019-08-18 05:00:00 19.8 16 Noroeste 26 Noroeste 0 -- -- 74
2019-08-18 04:00:00 20.7 16 Noroeste 23 Noroeste 0 -- -- 71
2019-08-18 03:00:00 21.8 15 Noroeste 23 Noroeste 0 -- -- 67
2019-08-18 02:00:00 23.1 14 Noroeste 23 Noroeste 0 -- -- 63
2019-08-18 01:00:00 24.9 15 Noroeste 28 Noroeste 0 -- -- 54
2019-08-18 00:00:00 26.7 14 Noroeste 29 Noroeste 0 -- -- 44
2019-08-17 23:00:00 29.2 17 Noroeste 30 Noroeste 0 -- -- 36
2019-08-17 22:00:00 30.9 7 Noroeste 18 Sudoeste 0 -- -- 27
2019-08-17 21:00:00 33 14 Sudoeste 24 Sur 0 -- -- 28
2019-08-17 20:00:00 35.1 17 Sudoeste 34 Sur 0 -- -- 25
2019-08-17 19:00:00 36.7 17 Sudoeste 33 Sudoeste 0 -- -- 23
2019-08-17 18:00:00 37.7 14 Sudoeste 27 Sudoeste 0 -- -- 24
2019-08-17 17:00:00 37.2 14 Sudoeste 27 Sur 0 -- -- 22
2019-08-17 16:00:00 36.6 10 Sur 27 Sudoeste 0 -- -- 24
2019-08-17 15:00:00 35.4 10 Sur 20 Oeste 0 -- -- 28
2019-08-17 14:00:00 33.5 7 Oeste 19 Norte 0 -- -- 30
2019-08-17 13:00:00 29.8 6 Noroeste 15 Oeste 0 -- -- 39
2019-08-17 12:00:00 26.1 10 Noroeste 20 Noroeste 0 -- -- 51
2019-08-17 11:00:00 22.6 14 Noroeste 21 Noroeste 0 -- -- 63
2019-08-17 10:00:00 19.7 11 Noroeste 22 Noroeste 0 -- -- 72
2019-08-17 09:00:00 17.6 12 Oeste 23 Noroeste 0 -- -- 80
2019-08-17 08:00:00 16.7 14 Noroeste 25 Noroeste 0 -- -- 81
2019-08-17 07:00:00 17.6 18 Noroeste 26 Noroeste 0 -- -- 75
2019-08-17 06:00:00 18.6 15 Noroeste 25 Noroeste 0 -- -- 71
2019-08-17 05:00:00 19.7 16 Noroeste 24 Noroeste 0 -- -- 67
2019-08-17 04:00:00 21 15 Noroeste 25 Noroeste 0 -- -- 62
2019-08-17 03:00:00 22.6 18 Noroeste 25 Oeste 0 -- -- 55
2019-08-17 02:00:00 24.5 16 Noroeste 22 Noroeste 0 -- -- 47
2019-08-17 01:00:00 26.4 13 Noroeste 23 Noroeste 0 -- -- 43
2019-08-17 00:00:00 27.8 13 Noroeste 26 Noroeste 0 -- -- 42
2019-08-16 23:00:00 29.1 12 Noroeste 23 Oeste 0 -- -- 38
2019-08-16 22:00:00 29.5 10 Sudoeste 17 Sur 0 -- -- 38
2019-08-16 21:00:00 31.6 13 Sur 28 Sudoeste 0 -- -- 34
2019-08-16 20:00:00 33.7 22 Sur 29 Sur 0 -- -- 32
2019-08-16 19:00:00 36.1 18 Sudoeste 26 Sur 0 -- -- 28
2019-08-16 18:00:00 36.9 11 Noroeste 24 Noroeste 0 -- -- 22
2019-08-16 17:00:00 36.4 13 Noroeste 27 Noroeste 0 -- -- 25
2019-08-16 16:00:00 35.9 10 Noroeste 24 Oeste 0 -- -- 25
2019-08-16 15:00:00 35 12 Oeste 22 Oeste 0 -- -- 28
2019-08-16 14:00:00 32.9 11 Noroeste 22 Noroeste 0 -- -- 35
2019-08-16 13:00:00 30.5 10 Noroeste 17 Noroeste 0 -- -- 41
2019-08-16 12:00:00 28.1 9 Noroeste 16 Oeste 0 -- -- 46
2019-08-16 11:00:00 25.1 10 Noroeste 22 Noroeste 0 -- -- 55
2019-08-16 10:00:00 21.9 12 Noroeste 25 Noroeste 0 -- -- 65
2019-08-16 09:00:00 20 14 Noroeste 28 Noroeste 0 -- -- 71
2019-08-16 08:00:00 19.5 15 Noroeste 28 Noroeste 0 -- -- 73
2019-08-16 07:00:00 20.4 17 Noroeste 28 Noroeste 0 -- -- 70
2019-08-16 06:00:00 21.2 18 Noroeste 28 Noroeste 0 -- -- 66
2019-08-16 05:00:00 22.2 14 Noroeste 24 Noroeste 0 -- -- 62
2019-08-16 04:00:00 23.7 15 Noroeste 25 Noroeste 0 -- -- 57
2019-08-16 03:00:00 25.1 17 Noroeste 26 Noroeste 0 -- -- 51
2019-08-16 02:00:00 26.4 15 Noroeste 23 Noroeste 0 -- -- 45
2019-08-16 01:00:00 28 11 Noroeste 22 Norte 0 -- -- 39
2019-08-16 00:00:00 29.6 14 Noroeste 25 Noroeste 0 -- -- 36
2019-08-15 23:00:00 30.3 12 Oeste 18 Oeste 0 -- -- 35
2019-08-15 22:00:00 30.8 12 Oeste 19 Sudoeste 0 -- -- 31
2019-08-15 21:00:00 32.5 13 Sudoeste 26 Sudoeste 0 -- -- 29
2019-08-15 20:00:00 34.4 18 Sudoeste 31 Sudoeste 0 -- -- 28
2019-08-15 19:00:00 36.2 17 Sudoeste 33 Sudoeste 0 -- -- 26
2019-08-15 18:00:00 37.1 12 Noroeste 22 Oeste 0 -- -- 21
2019-08-15 17:00:00 37.1 10 Oeste 24 Noroeste 0 -- -- 21
2019-08-15 16:00:00 36.5 12 Noroeste 30 Noroeste 0 -- -- 24
2019-08-15 15:00:00 35.8 10 Noroeste 19 Noroeste 0 -- -- 26
2019-08-15 14:00:00 34.1 9 Noroeste 18 Oeste 0 -- -- 33
2019-08-15 13:00:00 32.6 4 Noroeste 10 Noroeste 0 -- -- 36
2019-08-15 12:00:00 29.5 4 Noroeste 9 Noroeste 0 -- -- 44
2019-08-15 11:00:00 25.4 8 Noroeste 15 Noroeste 0 -- -- 58
2019-08-15 10:00:00 21.6 11 Noroeste 17 Noroeste 0 -- -- 73
2019-08-15 09:00:00 19.7 9 Noroeste 18 Noroeste 0 -- -- 81
2019-08-15 08:00:00 18.8 9 Oeste 23 Noroeste 0 -- -- 83
2019-08-15 07:00:00 19.6 14 Noroeste 25 Noroeste 0 -- -- 79
2019-08-15 06:00:00 20.5 17 Noroeste 25 Noroeste 0 -- -- 74
2019-08-15 05:00:00 21.7 17 Noroeste 23 Noroeste 0 -- -- 68
2019-08-15 04:00:00 23 14 Noroeste 25 Noroeste 0 -- -- 63
2019-08-15 03:00:00 24.2 15 Noroeste 22 Noroeste 0 -- -- 55
2019-08-15 02:00:00 25.7 13 Noroeste 19 Noroeste 0 -- -- 49
2019-08-15 01:00:00 27 12 Noroeste 22 Noroeste 0 -- -- 42
2019-08-15 00:00:00 28.2 15 Noroeste 24 Noroeste 0 -- -- 32
2019-08-14 23:00:00 29.4 9 Noroeste 13 Noroeste 0 -- -- 23
2019-08-14 22:00:00 30.9 8 Noroeste 19 Noroeste 0 -- -- 21
2019-08-14 21:00:00 33.9 14 Noroeste 27 Noroeste 0 -- -- 17
2019-08-14 20:00:00 35.2 17 Noroeste 28 Noroeste 0 -- -- 18
2019-08-14 19:00:00 35.5 15 Noroeste 27 Oeste 0 -- -- 18
2019-08-14 18:00:00 35.4 10 Noroeste 22 Noroeste 0 -- -- 20
2019-08-14 17:00:00 34.7 9 Noroeste 23 Noroeste 0 -- -- 23
2019-08-14 16:00:00 34.3 8 Noroeste 23 Noroeste 0 -- -- 27
2019-08-14 15:00:00 33 11 Noroeste 21 Noroeste 0 -- -- 30
2019-08-14 14:00:00 32 11 Sur 19 Sudoeste 0 -- -- 28
2019-08-14 13:00:00 30 7 Sudoeste 20 Sudoeste 0 -- -- 32
2019-08-14 12:00:00 28.1 9 Sudoeste 21 Oeste 0 -- -- 40
2019-08-14 11:00:00 24.2 0 Calma 7 Noroeste 0 -- -- 42
2019-08-14 10:00:00 20.1 4 Noroeste 12 Noroeste 0 -- -- 54
2019-08-14 09:00:00 17 9 Oeste 14 Noroeste 0 -- -- 64
2019-08-14 08:00:00 16.2 6 Oeste 13 Oeste 0 -- -- 66
2019-08-14 07:00:00 16.7 6 Oeste 16 Noroeste 0 -- -- 62
2019-08-14 06:00:00 17.3 11 Noroeste 26 Noroeste 0 -- -- 59
2019-08-14 05:00:00 18.4 18 Noroeste 26 Noroeste 0 -- -- 56
2019-08-14 04:00:00 19.6 17 Noroeste 27 Noroeste 0 -- -- 51
2019-08-14 03:00:00 21 16 Noroeste 25 Noroeste 0 -- -- 47
2019-08-14 02:00:00 22.6 17 Noroeste 27 Noroeste 0 -- -- 44
2019-08-14 01:00:00 24 17 Noroeste 25 Noroeste 0 -- -- 39
2019-08-14 00:00:00 25.2 15 Noroeste 22 Oeste 0 -- -- 33
2019-08-13 23:00:00 28.3 6 Noroeste 12 Noroeste 0 -- -- 19
2019-08-13 22:00:00 29.2 6 Noroeste 21 Noroeste 0 -- -- 17
2019-08-13 21:00:00 32.1 10 Noroeste 26 Noroeste 0 -- -- 15
2019-08-13 20:00:00 33.4 15 Noroeste 27 Noroeste 0 -- -- 14
2019-08-13 19:00:00 33.8 12 Noroeste 25 Noroeste 0 -- -- 15
2019-08-13 18:00:00 33.9 13 Noroeste 27 Norte 0 -- -- 16
2019-08-13 17:00:00 33.7 7 Noroeste 25 Noroeste 0 -- -- 16
2019-08-13 16:00:00 33.3 10 Noroeste 21 Norte 0 -- -- 16
2019-08-13 15:00:00 32.2 13 Norte 23 Noroeste 0 -- -- 18
2019-08-13 14:00:00 31.2 8 Norte 24 Sudoeste 0 -- -- 19
2019-08-13 13:00:00 30 14 Noroeste 27 Noroeste 0 -- -- 21
2019-08-13 12:00:00 27 19 Noroeste 28 Noroeste 0 -- -- 29
2019-08-13 11:00:00 23.2 16 Noroeste 25 Noroeste 0 -- -- 44
2019-08-13 10:00:00 18.8 18 Noroeste 27 Noroeste 0 -- -- 61
2019-08-13 09:00:00 16.2 15 Noroeste 26 Noroeste 0 -- -- 71
2019-08-13 08:00:00 15 18 Noroeste 29 Noroeste 0 -- -- 75
2019-08-13 07:00:00 15.5 16 Noroeste 25 Noroeste 0 -- -- 72
2019-08-13 06:00:00 16.2 15 Noroeste 25 Noroeste 0 -- -- 70
2019-08-13 05:00:00 17.1 14 Noroeste 26 Noroeste 0 -- -- 66
2019-08-13 04:00:00 18.3 18 Noroeste 27 Noroeste 0 -- -- 61
2019-08-13 03:00:00 20 17 Noroeste 27 Noroeste 0 -- -- 54
2019-08-13 02:00:00 21.5 15 Noroeste 26 Noroeste 0 -- -- 39
2019-08-13 01:00:00 23.2 12 Noroeste 19 Noroeste 0 -- -- 24
2019-08-13 00:00:00 25.5 9 Norte 15 Noroeste 0 -- -- 22
2019-08-12 23:00:00 26.1 12 Norte 22 Noroeste 0 -- -- 22
2019-08-12 22:00:00 27 14 Norte 30 Norte 0 -- -- 21
2019-08-12 21:00:00 28.1 18 Norte 32 Noroeste 0 -- -- 20
2019-08-12 20:00:00 29.5 18 Norte 32 Norte 0 -- -- 17
2019-08-12 19:00:00 30.3 15 Norte 35 Norte 0 -- -- 17
2019-08-12 18:00:00 30.7 20 Norte 36 Norte 0 -- -- 16
2019-08-12 17:00:00 29.9 17 Norte 41 Norte 0 -- -- 18
2019-08-12 16:00:00 29.7 17 Norte 48 Noroeste 0 -- -- 20
2019-08-12 15:00:00 28.6 16 Norte 37 Norte 0 -- -- 21
2019-08-12 14:00:00 26.8 22 Norte 38 Norte 0 -- -- 25
2019-08-12 13:00:00 25.4 20 Norte 42 Norte 0 -- -- 30
2019-08-12 12:00:00 23.5 22 Norte 43 Nordeste 0 -- -- 36
2019-08-12 11:00:00 20.5 14 Norte 29 Norte 0 -- -- 50
2019-08-12 10:00:00 17.4 19 Norte 30 Norte 0 -- -- 62
2019-08-12 09:00:00 14.9 14 Noroeste 24 Noroeste 0 -- -- 74
2019-08-12 08:00:00 13.7 17 Noroeste 31 Norte 0 -- -- 80
2019-08-12 07:00:00 14.1 19 Noroeste 32 Norte 0 -- -- 79
2019-08-12 06:00:00 14.8 20 Noroeste 35 Noroeste 0 -- -- 75
2019-08-12 05:00:00 15.9 14 Noroeste 28 Noroeste 0 -- -- 70
2019-08-12 04:00:00 17 17 Norte 30 Noroeste 0 -- -- 67
2019-08-12 03:00:00 17.7 16 Norte 30 Norte 0 -- -- 62
2019-08-12 02:00:00 18.8 17 Norte 32 Norte 0 -- -- 56
2019-08-12 01:00:00 20.3 21 Norte 42 Norte 0 -- -- 49
2019-08-12 00:00:00 21.8 23 Noroeste 37 Noroeste 0 -- -- 42
2019-08-11 23:00:00 22.9 17 Norte 33 Noroeste 0 -- -- 38
2019-08-11 22:00:00 24.2 18 Norte 30 Noroeste 0 -- -- 36
2019-08-11 21:00:00 25.2 14 Norte 36 Norte 0 -- -- 31
2019-08-11 20:00:00 26 20 Norte 41 Norte 0 -- -- 31
2019-08-11 19:00:00 26 22 Norte 41 Norte 0 -- -- 33
2019-08-11 18:00:00 27.6 26 Noroeste 41 Norte 0 -- -- 30
2019-08-11 17:00:00 27.1 23 Norte 43 Norte 0 -- -- 31
2019-08-11 16:00:00 26.8 24 Noroeste 40 Noroeste 0 -- -- 30
2019-08-11 15:00:00 25.3 24 Noroeste 48 Norte 0 -- -- 32
2019-08-11 14:00:00 25.6 22 Norte 45 Noroeste 0 -- -- 33
2019-08-11 13:00:00 23.5 28 Norte 50 Noroeste 0 -- -- 37
2019-08-11 12:00:00 22 28 Norte 48 Noroeste 0 -- -- 45
2019-08-11 11:00:00 20 30 Norte 48 Noroeste 0 -- -- 53
2019-08-11 10:00:00 18.1 25 Norte 46 Noroeste 0 -- -- 64
2019-08-11 09:00:00 16.4 19 Norte 36 Noroeste 0 -- -- 73
2019-08-11 08:00:00 16.1 20 Norte 37 Norte 0 -- -- 75
2019-08-11 07:00:00 16.5 22 Noroeste 45 Noroeste 0 -- -- 69
2019-08-11 06:00:00 17 21 Noroeste 38 Noroeste 0 -- -- 69
2019-08-11 05:00:00 17.4 21 Noroeste 38 Noroeste 0 -- -- 65
2019-08-11 04:00:00 18.1 19 Noroeste 30 Noroeste 0 -- -- 60
2019-08-11 03:00:00 18.8 17 Noroeste 30 Noroeste 0 -- -- 61
2019-08-11 02:00:00 19.6 18 Noroeste 33 Norte 0 -- -- 59
2019-08-11 01:00:00 20.9 22 Noroeste 35 Noroeste 0 -- -- 55
2019-08-11 00:00:00 21.6 20 Noroeste 30 Noroeste 0 -- -- 55
2019-08-10 23:00:00 22.7 22 Noroeste 40 Noroeste 0 -- -- 53
2019-08-10 22:00:00 24.6 23 Noroeste 43 Noroeste 0 -- -- 50
2019-08-10 21:00:00 28.2 20 Noroeste 33 Noroeste 0 -- -- 32
2019-08-10 20:00:00 30.2 21 Noroeste 32 Noroeste 0 -- -- 25
2019-08-10 19:00:00 31 18 Noroeste 33 Noroeste 0 -- -- 23
2019-08-10 18:00:00 31.2 15 Noroeste 31 Oeste 0 -- -- 22
2019-08-10 17:00:00 31 16 Noroeste 28 Noroeste 0 -- -- 22
2019-08-10 16:00:00 30.4 13 Noroeste 28 Noroeste 0 -- -- 24
2019-08-10 15:00:00 29.1 13 Noroeste 26 Norte 0 -- -- 29
2019-08-10 14:00:00 27.9 13 Noroeste 30 Noroeste 0 -- -- 37
2019-08-10 13:00:00 26.6 12 Noroeste 27 Noroeste 0 -- -- 45
2019-08-10 12:00:00 25.1 14 Noroeste 28 Noroeste 0 -- -- 48
2019-08-10 11:00:00 23.8 15 Norte 30 Noroeste 0 -- -- 52
2019-08-10 10:00:00 22.4 15 Norte 28 Norte 0 -- -- 56
2019-08-10 09:00:00 19.5 17 Noroeste 25 Noroeste 0 -- -- 70
2019-08-10 08:00:00 17.8 10 Noroeste 18 Noroeste 0 -- -- 80
2019-08-10 07:00:00 18.1 9 Noroeste 18 Noroeste 0 -- -- 79
2019-08-10 06:00:00 18.5 12 Noroeste 26 Noroeste 0 -- -- 78
2019-08-10 05:00:00 19 16 Noroeste 24 Noroeste 0 -- -- 77
2019-08-10 04:00:00 19.5 17 Noroeste 25 Noroeste 0 -- -- 78
2019-08-10 03:00:00 20 16 Noroeste 22 Noroeste 0 -- -- 77
2019-08-10 02:00:00 21.1 17 Noroeste 32 Noroeste 0 -- -- 71
2019-08-10 01:00:00 22.8 13 Noroeste 23 Noroeste 0 -- -- 71
2019-08-10 00:00:00 23.5 15 Noroeste 28 Noroeste 0 -- -- 69
2019-08-09 23:00:00 24.5 17 Noroeste 27 Noroeste 0 -- -- 67
2019-08-09 22:00:00 25.9 17 Noroeste 29 Noroeste 0 -- -- 64
2019-08-09 21:00:00 28.1 17 Noroeste 29 Noroeste 0 -- -- 58
2019-08-09 20:00:00 29.8 17 Noroeste 32 Oeste 0 -- -- 52
2019-08-09 19:00:00 30.3 19 Noroeste 32 Noroeste 0 -- -- 52
2019-08-09 18:00:00 30.1 17 Noroeste 32 Oeste 0 -- -- 55
2019-08-09 17:00:00 29.5 22 Noroeste 37 Noroeste 0 -- -- 59
2019-08-09 16:00:00 30.5 13 Noroeste 27 Oeste 0 -- -- 50
2019-08-09 15:00:00 31.4 12 Oeste 27 Noroeste 0 -- -- 49
2019-08-09 14:00:00 29.2 14 Noroeste 25 Oeste 0 -- -- 57
2019-08-09 13:00:00 27.3 9 Oeste 22 Noroeste 0 -- -- 64
2019-08-09 12:00:00 25.3 6 Noroeste 18 Noroeste 0 -- -- 70
2019-08-09 11:00:00 23.9 12 Noroeste 19 Noroeste 0 -- -- 74
2019-08-09 10:00:00 22.4 10 Noroeste 17 Oeste 0 -- -- 81
2019-08-09 09:00:00 21.3 8 Noroeste 19 Noroeste 0 -- -- 85
2019-08-09 08:00:00 20.9 13 Noroeste 19 Noroeste 0 -- -- 88
2019-08-09 07:00:00 20.8 9 Noroeste 24 Noroeste 0 -- -- 89
2019-08-09 06:00:00 20.6 15 Noroeste 25 Noroeste 0 -- -- 90
2019-08-09 05:00:00 20.5 17 Noroeste 27 Noroeste 0 -- -- 90
2019-08-09 04:00:00 20.4 13 Noroeste 23 Noroeste 0 -- -- 90
2019-08-09 03:00:00 20.9 16 Noroeste 30 Noroeste 0 -- -- 87
2019-08-09 02:00:00 21.9 18 Noroeste 27 Noroeste 0 -- -- 82
2019-08-09 01:00:00 23.3 16 Noroeste 30 Oeste 0 -- -- 75
2019-08-09 00:00:00 24.6 16 Noroeste 31 Noroeste 0 -- -- 70
2019-08-08 23:00:00 26.1 18 Noroeste 32 Noroeste 0 -- -- 63
2019-08-08 22:00:00 27.8 21 Noroeste 33 Noroeste 0 -- -- 56
2019-08-08 21:00:00 29.6 15 Sudoeste 29 Sur 0 -- -- 47
2019-08-08 20:00:00 30.7 24 Sur 33 Sur 0 -- -- 42
2019-08-08 19:00:00 32.6 19 Sudoeste 27 Sudoeste 0 -- -- 36
2019-08-08 18:00:00 34.1 13 Sudoeste 25 Sudoeste 0 -- -- 34
2019-08-08 17:00:00 34 14 Noroeste 29 Noroeste 0 -- -- 28
2019-08-08 16:00:00 33.9 10 Noroeste 24 Oeste 0 -- -- 26
2019-08-08 15:00:00 32.9 12 Oeste 23 Sudoeste 0 -- -- 31
2019-08-08 14:00:00 31.8 8 Oeste 21 Sudoeste 0 -- -- 31
2019-08-08 13:00:00 29.9 8 Oeste 15 Noroeste 0 -- -- 39
2019-08-08 12:00:00 27.6 3 Noroeste 13 Noroeste 0 -- -- 49
2019-08-08 11:00:00 24.8 5 Noroeste 14 Noroeste 0 -- -- 62
2019-08-08 10:00:00 21.7 10 Noroeste 20 Noroeste 0 -- -- 75
2019-08-08 09:00:00 19.8 11 Noroeste 18 Noroeste 0 -- -- 80
2019-08-08 08:00:00 18.6 10 Noroeste 14 Noroeste 0 -- -- 85
2019-08-08 07:00:00 18.8 10 Noroeste 18 Noroeste 0 -- -- 82
2019-08-08 06:00:00 19.3 12 Noroeste 20 Noroeste 0 -- -- 79
2019-08-08 05:00:00 20 12 Noroeste 18 Noroeste 0 -- -- 76
2019-08-08 04:00:00 20.7 13 Noroeste 20 Noroeste 0 -- -- 73
2019-08-08 03:00:00 21.5 14 Noroeste 22 Noroeste 0 -- -- 69
2019-08-08 02:00:00 22.5 10 Noroeste 20 Noroeste 0 -- -- 66
2019-08-08 01:00:00 23.3 8 Noroeste 12 Noroeste 0 -- -- 60
2019-08-08 00:00:00 24.3 8 Noroeste 19 Noroeste 0 -- -- 56
2019-08-07 23:00:00 25.4 10 Noroeste 18 Noroeste 0 -- -- 50
2019-08-07 22:00:00 26.2 11 Noroeste 23 Noroeste 0 -- -- 46
2019-08-07 21:00:00 27.7 17 Noroeste 24 Noroeste 0 -- -- 42
2019-08-07 20:00:00 28 13 Noroeste 25 Noroeste 0 -- -- 44
2019-08-07 19:00:00 27.5 17 Noroeste 34 Noroeste 0 -- -- 47
2019-08-07 18:00:00 29.3 19 Noroeste 33 Noroeste 0 -- -- 40
2019-08-07 17:00:00 29.1 17 Noroeste 25 Noroeste 0 -- -- 40
2019-08-07 16:00:00 30.2 15 Noroeste 27 Noroeste 0 -- -- 38
2019-08-07 15:00:00 28.5 13 Noroeste 26 Noroeste 0 -- -- 43
2019-08-07 14:00:00 27.5 15 Noroeste 28 Norte 0 -- -- 47
2019-08-07 13:00:00 25.7 14 Noroeste 26 Noroeste 0 -- -- 54
2019-08-07 12:00:00 25.3 14 Norte 28 Noroeste 0 -- -- 58
2019-08-07 11:00:00 23.7 14 Noroeste 31 Noroeste 0 -- -- 65
2019-08-07 10:00:00 21.3 18 Noroeste 32 Noroeste 0 -- -- 75
2019-08-07 09:00:00 18.6 18 Noroeste 30 Noroeste 0 -- -- 86
2019-08-07 08:00:00 17.7 15 Noroeste 24 Noroeste 0 -- -- 89
2019-08-07 07:00:00 17.9 13 Noroeste 27 Noroeste 0 -- -- 88
2019-08-07 06:00:00 18.5 17 Noroeste 26 Noroeste 0 -- -- 86
2019-08-07 05:00:00 18.9 15 Noroeste 27 Noroeste 0 -- -- 84
2019-08-07 04:00:00 19.8 19 Noroeste 31 Noroeste 0 -- -- 80
2019-08-07 03:00:00 20.8 17 Noroeste 28 Noroeste 0 -- -- 76
2019-08-07 02:00:00 21.6 18 Noroeste 27 Noroeste 0 -- -- 72
2019-08-07 01:00:00 22.9 18 Noroeste 29 Noroeste 0 -- -- 68
2019-08-07 00:00:00 24.9 17 Noroeste 33 Noroeste 0 -- -- 58
2019-08-06 23:00:00 26.5 17 Noroeste 27 Oeste 0 -- -- 51
2019-08-06 22:00:00 28.3 15 Noroeste 30 Noroeste 0 -- -- 46
2019-08-06 21:00:00 31.5 13 Noroeste 27 Noroeste 0 -- -- 33
2019-08-06 20:00:00 33.2 13 Noroeste 27 Noroeste 0 -- -- 28
2019-08-06 19:00:00 33.7 17 Noroeste 28 Noroeste 0 -- -- 25
2019-08-06 18:00:00 33.7 17 Noroeste 30 Noroeste 0 -- -- 26
2019-08-06 17:00:00 33.9 16 Oeste 27 Oeste 0 -- -- 27
2019-08-06 16:00:00 33 12 Noroeste 24 Noroeste 0 -- -- 27
2019-08-06 15:00:00 32.1 14 Noroeste 22 Noroeste 0 -- -- 30
2019-08-06 14:00:00 31.3 9 Oeste 25 Oeste 0 -- -- 35
2019-08-06 13:00:00 29.3 17 Noroeste 25 Noroeste 0 -- -- 43
2019-08-06 12:00:00 28.5 5 Sudoeste 9 Oeste 0 -- -- 45
2019-08-06 11:00:00 24.7 9 Oeste 13 Noroeste 0 -- -- 57
2019-08-06 10:00:00 20.5 7 Noroeste 19 Noroeste 0 -- -- 76
2019-08-06 09:00:00 17.9 12 Noroeste 25 Noroeste 0 -- -- 86
2019-08-06 08:00:00 16.7 19 Noroeste 28 Noroeste 0 -- -- 89
2019-08-06 07:00:00 16.8 14 Noroeste 25 Noroeste 0 -- -- 87
2019-08-06 06:00:00 17.6 15 Noroeste 23 Noroeste 0 -- -- 80
2019-08-06 05:00:00 18.8 14 Noroeste 23 Noroeste 0 -- -- 72
2019-08-06 04:00:00 19.7 17 Noroeste 26 Noroeste 0 -- -- 65
2019-08-06 03:00:00 20.8 14 Noroeste 25 Noroeste 0 -- -- 62
2019-08-06 02:00:00 22.2 18 Noroeste 27 Noroeste 0 -- -- 59
2019-08-06 01:00:00 23.7 17 Noroeste 28 Noroeste 0 -- -- 54
2019-08-06 00:00:00 25.5 18 Noroeste 28 Noroeste 0 -- -- 48
2019-08-05 23:00:00 27.2 15 Noroeste 24 Noroeste 0 -- -- 42
2019-08-05 22:00:00 29.7 6 Oeste 18 Oeste 0 -- -- 24
2019-08-05 21:00:00 32.7 12 Oeste 23 Noroeste 0 -- -- 20
2019-08-05 20:00:00 34 11 Oeste 26 Noroeste 0 -- -- 17
2019-08-05 19:00:00 34.3 13 Oeste 26 Noroeste 0 -- -- 17
2019-08-05 18:00:00 34.2 14 Noroeste 31 Noroeste 0 -- -- 20
2019-08-05 17:00:00 33.8 17 Noroeste 28 Noroeste 0 -- -- 19
2019-08-05 16:00:00 33.3 9 Oeste 26 Sudoeste 0 -- -- 23
2019-08-05 15:00:00 32.5 11 Sudoeste 21 Sudoeste 0 -- -- 24
2019-08-05 14:00:00 30.5 8 Sudoeste 19 Noroeste -- -- -- 30
2019-08-05 13:00:00 27.7 14 Noroeste 22 Oeste 0 -- -- 36
2019-08-05 12:00:00 24.4 13 Noroeste 23 Noroeste 0 -- -- 50
2019-08-05 11:00:00 21.5 14 Noroeste 24 Noroeste 0 -- -- 60
2019-08-05 10:00:00 18.7 16 Noroeste 29 Noroeste 0 -- -- 70
2019-08-05 09:00:00 16.5 18 Noroeste 30 Noroeste 0 -- -- 78
2019-08-05 08:00:00 15.2 20 Noroeste 27 Noroeste 0 -- -- 84
2019-08-05 07:00:00 15.9 18 Noroeste 28 Noroeste 0 -- -- 81
2019-08-05 06:00:00 16.8 16 Noroeste 27 Noroeste 0 -- -- 76
2019-08-05 05:00:00 17.6 16 Noroeste 26 Noroeste 0 -- -- 72
2019-08-05 04:00:00 18.5 14 Noroeste 27 Noroeste 0 -- -- 67
2019-08-05 03:00:00 19.5 18 Noroeste 28 Noroeste 0 -- -- 65
2019-08-05 02:00:00 20.9 17 Noroeste 29 Noroeste 0 -- -- 63
2019-08-05 01:00:00 22.6 17 Noroeste 30 Noroeste 0 -- -- 59
2019-08-05 00:00:00 24.8 19 Noroeste 32 Noroeste 0 -- -- 53
2019-08-04 23:00:00 26.4 21 Noroeste 35 Noroeste 0 -- -- 47
2019-08-04 22:00:00 28.3 23 Noroeste 36 Noroeste 0 -- -- 42
2019-08-04 21:00:00 31.3 23 Noroeste 37 Noroeste 0 -- -- 35
2019-08-04 20:00:00 33.2 21 Noroeste 32 Noroeste 0 -- -- 29
2019-08-04 19:00:00 34.1 14 Noroeste 28 Noroeste 0 -- -- 27
2019-08-04 18:00:00 34.3 13 Noroeste 28 Noroeste 0 -- -- 27
2019-08-04 17:00:00 33.8 12 Noroeste 32 Noroeste 0 -- -- 26
2019-08-04 16:00:00 32.8 15 Noroeste 25 Noroeste 0 -- -- 29
2019-08-04 15:00:00 32 18 Noroeste 30 Noroeste 0 -- -- 31
2019-08-04 14:00:00 30 15 Noroeste 32 Norte 0 -- -- 37
2019-08-04 13:00:00 28.1 17 Noroeste 30 Noroeste 0 -- -- 44
2019-08-04 12:00:00 25.2 15 Noroeste 27 Noroeste 0 -- -- 54
2019-08-04 11:00:00 22.6 15 Noroeste 30 Noroeste 0 -- -- 64
2019-08-04 10:00:00 19.9 19 Noroeste 32 Noroeste 0 -- -- 77
2019-08-04 09:00:00 17.8 18 Noroeste 27 Noroeste 0 -- -- 89
2019-08-04 08:00:00 16.9 18 Noroeste 29 Noroeste 0 -- -- 92
2019-08-04 07:00:00 17.4 19 Noroeste 27 Noroeste 0 -- -- 89
2019-08-04 06:00:00 18.1 20 Noroeste 28 Noroeste 0 -- -- 85
2019-08-04 05:00:00 19 15 Noroeste 26 Noroeste 0 -- -- 80
2019-08-04 04:00:00 20 13 Noroeste 25 Noroeste 0 -- -- 75
2019-08-04 03:00:00 21.2 15 Noroeste 28 Noroeste 0 -- -- 69
2019-08-04 02:00:00 22.8 18 Noroeste 28 Noroeste 0 -- -- 65
2019-08-04 01:00:00 24 14 Noroeste 25 Noroeste 0 -- -- 62
2019-08-04 00:00:00 25.3 15 Noroeste 26 Noroeste 0 -- -- 58
2019-08-03 23:00:00 27.1 14 Noroeste 24 Noroeste 0 -- -- 51
2019-08-03 22:00:00 28.1 8 Sudoeste 18 Sudoeste 0 -- -- 35
2019-08-03 21:00:00 30.5 13 Sudoeste 24 Sudoeste 0 -- -- 30
2019-08-03 20:00:00 33.3 13 Oeste 23 Noroeste 0 -- -- 27
2019-08-03 19:00:00 33.9 13 Noroeste 27 Noroeste 0 -- -- 20
2019-08-03 18:00:00 33.7 13 Oeste 29 Noroeste 0 -- -- 22
2019-08-03 17:00:00 33.1 14 Noroeste 31 Oeste 0 -- -- 25
2019-08-03 16:00:00 33 10 Oeste 22 Oeste 0 -- -- 27
2019-08-03 15:00:00 32.2 10 Sudoeste 21 Oeste 0 -- -- 28
2019-08-03 14:00:00 30.5 8 Oeste 25 Oeste 0 -- -- 32
2019-08-03 13:00:00 28.2 8 Oeste 19 Sudoeste 0 -- -- 38
2019-08-03 12:00:00 24.9 12 Noroeste 21 Noroeste 0 -- -- 48
2019-08-03 11:00:00 21.8 14 Noroeste 21 Noroeste 0 -- -- 58
2019-08-03 10:00:00 19.1 13 Noroeste 24 Oeste 0 -- -- 69
2019-08-03 09:00:00 16.5 14 Noroeste 26 Noroeste 0 -- -- 79
2019-08-03 08:00:00 15.4 15 Noroeste 24 Noroeste 0 -- -- 83
2019-08-03 07:00:00 15.9 12 Oeste 23 Noroeste 0 -- -- 81
2019-08-03 06:00:00 16.9 17 Noroeste 27 Noroeste 0 -- -- 77
2019-08-03 05:00:00 18 15 Noroeste 24 Noroeste 0 -- -- 75
2019-08-03 04:00:00 19 15 Noroeste 23 Noroeste 0 -- -- 73
2019-08-03 03:00:00 20.1 16 Noroeste 29 Noroeste 0 -- -- 70
2019-08-03 02:00:00 21.6 18 Noroeste 27 Noroeste 0 -- -- 64
2019-08-03 01:00:00 23.3 20 Noroeste 30 Noroeste 0 -- -- 59
2019-08-03 00:00:00 24.8 14 Noroeste 30 Noroeste 0 -- -- 55
2019-08-02 23:00:00 27.1 15 Noroeste 28 Noroeste 0 -- -- 47
2019-08-02 22:00:00 28.3 11 Oeste 19 Sudoeste 0 -- -- 33
2019-08-02 21:00:00 31.7 11 Sudoeste 23 Oeste 0 -- -- 28
2019-08-02 20:00:00 33.1 16 Oeste 29 Noroeste 0 -- -- 24
2019-08-02 19:00:00 33.5 13 Noroeste 24 Oeste 0 -- -- 24
2019-08-02 18:00:00 33.4 14 Noroeste 26 Noroeste 0 -- -- 24
2019-08-02 17:00:00 32.9 12 Noroeste 27 Noroeste 0 -- -- 22
2019-08-02 16:00:00 31.9 12 Noroeste 25 Oeste 0 -- -- 27
2019-08-02 15:00:00 30.7 14 Oeste 27 Noroeste 0 -- -- 27
2019-08-02 14:00:00 28.5 17 Noroeste 29 Oeste 0 -- -- 34
2019-08-02 13:00:00 26 18 Noroeste 28 Noroeste 0 -- -- 43
2019-08-02 12:00:00 23.2 19 Noroeste 33 Oeste 0 -- -- 54
2019-08-02 11:00:00 20.6 20 Noroeste 33 Noroeste 0 -- -- 64
2019-08-02 10:00:00 18.1 18 Noroeste 32 Noroeste 0 -- -- 74
2019-08-02 09:00:00 15.8 22 Noroeste 35 Noroeste 0 -- -- 83
2019-08-02 08:00:00 14.5 17 Noroeste 26 Noroeste 0 -- -- 87
2019-08-02 07:00:00 14.8 17 Noroeste 29 Noroeste 0 -- -- 85
2019-08-02 06:00:00 15.6 20 Noroeste 30 Noroeste 0 -- -- 79
2019-08-02 05:00:00 16.7 18 Noroeste 33 Noroeste 0 -- -- 72
2019-08-02 04:00:00 18 21 Noroeste 33 Noroeste 0 -- -- 65
2019-08-02 03:00:00 19.7 19 Noroeste 32 Noroeste 0 -- -- 57
2019-08-02 02:00:00 21.5 21 Noroeste 31 Noroeste 0 -- -- 50
2019-08-02 01:00:00 23.6 17 Noroeste 32 Noroeste 0 -- -- 42
2019-08-02 00:00:00 25.5 19 Noroeste 36 Noroeste 0 -- -- 38
2019-08-01 23:00:00 27.4 22 Noroeste 35 Noroeste 0 -- -- 37
2019-08-01 22:00:00 29.7 18 Noroeste 32 Noroeste 0 -- -- 29
2019-08-01 21:00:00 32.2 18 Noroeste 28 Noroeste 0 -- -- 26
2019-08-01 20:00:00 33.3 16 Noroeste 31 Norte 0 -- -- 24
2019-08-01 19:00:00 33.7 12 Noroeste 28 Noroeste 0 -- -- 22
2019-08-01 18:00:00 33.6 13 Noroeste 26 Noroeste 0 -- -- 22
2019-08-01 17:00:00 33.1 14 Noroeste 34 Oeste 0 -- -- 23
2019-08-01 16:00:00 32.7 13 Noroeste 27 Oeste 0 -- -- 24
2019-08-01 15:00:00 31.1 13 Noroeste 26 Noroeste 0 -- -- 27
2019-08-01 14:00:00 30.1 14 Noroeste 24 Noroeste 0 -- -- 33
2019-08-01 13:00:00 28.9 10 Oeste 27 Sudoeste 0 -- -- 45
2019-08-01 12:00:00 26.4 13 Sudoeste 26 Sudoeste 0 -- -- 51
2019-08-01 11:00:00 23.1 7 Oeste 16 Oeste 0 -- -- 51
2019-08-01 10:00:00 20.2 10 Noroeste 16 Noroeste 0 -- -- 59
2019-08-01 09:00:00 17.6 12 Oeste 19 Noroeste 0 -- -- 67
2019-08-01 08:00:00 16.2 12 Oeste 22 Oeste 0 -- -- 71
2019-08-01 07:00:00 16.6 12 Oeste 20 Noroeste 0 -- -- 67
2019-08-01 06:00:00 17.6 13 Noroeste 21 Noroeste 0 -- -- 62
2019-08-01 05:00:00 18.9 12 Oeste 20 Oeste 0 -- -- 58
2019-08-01 04:00:00 20.3 11 Oeste 20 Oeste 0 -- -- 51
2019-08-01 03:00:00 21.5 13 Noroeste 19 Noroeste 0 -- -- 47
2019-08-01 02:00:00 23.5 11 Oeste 17 Oeste 0 -- -- 39
2019-08-01 01:00:00 23.1 10 Noroeste 15 Noroeste 0 -- -- 41
2019-08-01 00:00:00 24.5 11 Noroeste 21 Noroeste 0 -- -- 36
2019-07-31 23:00:00 26.3 18 Noroeste 28 Noroeste 0 -- -- 34
2019-07-31 22:00:00 27.4 21 Sudoeste 30 Sudoeste 0 -- -- 52
2019-07-31 21:00:00 29.2 21 Sudoeste 32 Sudoeste 0 -- -- 46
2019-07-31 20:00:00 30.9 24 Sudoeste 33 Sudoeste 0 -- -- 40
2019-07-31 19:00:00 32.3 23 Sudoeste 40 Sur 0 -- -- 36
2019-07-31 18:00:00 34.1 18 Sudoeste 31 Sudoeste 0 -- -- 31
2019-07-31 17:00:00 33.9 12 Noroeste 23 Oeste 0 -- -- 23
2019-07-31 16:00:00 33.5 8 Oeste 27 Sudoeste 0 -- -- 23
2019-07-31 15:00:00 32.4 13 Sudoeste 23 Sur 0 -- -- 27
2019-07-31 14:00:00 31.5 14 Oeste 23 Sudoeste 0 -- -- 31
2019-07-31 13:00:00 29.5 10 Oeste 22 Sudoeste 0 -- -- 31
2019-07-31 12:00:00 27.3 6 Oeste 15 Oeste 0 -- -- 36
2019-07-31 11:00:00 23.1 10 Noroeste 15 Oeste 0 -- -- 45
2019-07-31 10:00:00 19.4 9 Noroeste 15 Oeste 0 -- -- 58
2019-07-31 09:00:00 16.7 10 Oeste 16 Noroeste 0 -- -- 67
2019-07-31 08:00:00 15.4 7 Oeste 14 Noroeste 0 -- -- 70
2019-07-31 07:00:00 15.2 8 Noroeste 25 Noroeste 0 -- -- 71
2019-07-31 06:00:00 15.8 17 Noroeste 24 Noroeste 0 -- -- 68
2019-07-31 05:00:00 16.8 17 Noroeste 26 Noroeste 0 -- -- 64
2019-07-31 04:00:00 18 14 Noroeste 26 Noroeste 0 -- -- 60
2019-07-31 03:00:00 19.3 18 Noroeste 27 Noroeste 0 -- -- 57
2019-07-31 02:00:00 21 19 Noroeste 31 Noroeste 0 -- -- 52
2019-07-31 01:00:00 23 21 Noroeste 33 Noroeste 0 -- -- 46
2019-07-31 00:00:00 24.7 15 Noroeste 29 Noroeste 0 -- -- 31
2019-07-30 23:00:00 26.8 13 Noroeste 21 Noroeste 0 -- -- 20
2019-07-30 22:00:00 28.1 12 Norte 29 Norte 0 -- -- 17
2019-07-30 21:00:00 30.5 19 Norte 34 Noroeste 0 -- -- 16
2019-07-30 20:00:00 31.5 19 Noroeste 33 Norte 0 -- -- 15
2019-07-30 19:00:00 31.9 19 Noroeste 36 Norte 0 -- -- 15
2019-07-30 18:00:00 32 19 Noroeste 34 Norte 0 -- -- 15
2019-07-30 17:00:00 31.6 19 Noroeste 35 Norte 0 -- -- 17
2019-07-30 16:00:00 30.7 18 Norte 34 Norte 0 -- -- 19
2019-07-30 15:00:00 30.1 18 Norte 31 Norte 0 -- -- 19
2019-07-30 14:00:00 28.5 18 Norte 32 Norte 0 -- -- 23
2019-07-30 13:00:00 26.7 16 Norte 33 Noroeste 0 -- -- 29
2019-07-30 12:00:00 24.7 18 Norte 31 Norte 0 -- -- 36
2019-07-30 11:00:00 21.3 19 Noroeste 29 Noroeste 0 -- -- 48
2019-07-30 10:00:00 18.4 19 Noroeste 31 Noroeste 0 -- -- 59
2019-07-30 09:00:00 15.5 18 Noroeste 30 Noroeste 0 -- -- 73
2019-07-30 08:00:00 14 17 Noroeste 30 Noroeste 0 -- -- 80
2019-07-30 07:00:00 14.1 17 Noroeste 27 Norte 0 -- -- 79
2019-07-30 06:00:00 14.8 16 Noroeste 30 Norte 0 -- -- 76
2019-07-30 05:00:00 15.6 22 Noroeste 34 Noroeste 0 -- -- 72
2019-07-30 04:00:00 16.5 21 Noroeste 38 Noroeste 0 -- -- 67
2019-07-30 03:00:00 17.7 23 Noroeste 39 Norte 0 -- -- 60
2019-07-30 02:00:00 19.1 23 Noroeste 38 Noroeste 0 -- -- 53
2019-07-30 01:00:00 20.7 24 Norte 41 Norte 0 -- -- 50
2019-07-30 00:00:00 22.6 22 Norte 49 Norte 0 -- -- 43
2019-07-29 23:00:00 24.6 24 Norte 42 Norte 0 -- -- 37
2019-07-29 22:00:00 26.3 22 Norte 36 Norte 0 -- -- 33
2019-07-29 21:00:00 28.5 22 Norte 35 Norte 0 -- -- 31
2019-07-29 20:00:00 29.9 21 Norte 36 Noroeste 0 -- -- 30
2019-07-29 19:00:00 30.5 17 Noroeste 36 Noroeste 0 -- -- 33
2019-07-29 18:00:00 30.4 17 Noroeste 36 Noroeste 0 -- -- 34
2019-07-29 17:00:00 29.9 17 Norte 35 Norte 0 -- -- 39
2019-07-29 16:00:00 29.1 19 Norte 34 Norte 0 -- -- 43
2019-07-29 15:00:00 28.1 21 Noroeste 34 Noroeste 0 -- -- 47
2019-07-29 14:00:00 26.5 23 Noroeste 36 Noroeste 0 -- -- 52
2019-07-29 13:00:00 24.9 20 Norte 35 Norte 0 -- -- 58
2019-07-29 12:00:00 23 21 Noroeste 35 Norte 0 -- -- 63
2019-07-29 11:00:00 21.4 24 Norte 41 Noroeste 0 -- -- 67
2019-07-29 10:00:00 19.6 20 Norte 33 Noroeste 0 -- -- 67
2019-07-29 09:00:00 16.1 21 Noroeste 33 Noroeste 0 -- -- 75
2019-07-29 08:00:00 15.1 23 Noroeste 33 Noroeste 0 -- -- 78
2019-07-29 07:00:00 15.4 21 Noroeste 32 Noroeste 0 -- -- 76
2019-07-29 06:00:00 16.3 21 Noroeste 33 Noroeste 0 -- -- 72
2019-07-29 05:00:00 17.3 19 Noroeste 33 Noroeste 0 -- -- 68
2019-07-29 04:00:00 18.2 22 Noroeste 35 Noroeste 0 -- -- 70
2019-07-29 03:00:00 19.2 20 Noroeste 31 Noroeste 0 -- -- 68
2019-07-29 02:00:00 20.5 21 Noroeste 35 Noroeste 0 -- -- 64
2019-07-29 01:00:00 22 21 Noroeste 34 Oeste 0 -- -- 59
2019-07-29 00:00:00 23.5 18 Noroeste 36 Noroeste 0 -- -- 57
2019-07-28 23:00:00 25.4 18 Noroeste 36 Noroeste 0 -- -- 54
2019-07-28 22:00:00 27.9 11 Noroeste 24 Noroeste 0 -- -- 44
2019-07-28 21:00:00 30 17 Noroeste 30 Noroeste 0 -- -- 35
2019-07-28 20:00:00 30.4 14 Noroeste 29 Noroeste 0 -- -- 35
2019-07-28 19:00:00 30.7 14 Noroeste 28 Norte 0 -- -- 36
2019-07-28 18:00:00 30.5 15 Noroeste 29 Noroeste 0 -- -- 37
2019-07-28 17:00:00 29.8 8 Norte 30 Noroeste 0 -- -- 39
2019-07-28 16:00:00 28.9 10 Norte 27 Noroeste 0 -- -- 41
2019-07-28 15:00:00 28.7 6 Sur 18 Noroeste 0 -- -- 42
2019-07-28 14:00:00 26.5 8 Noroeste 19 Oeste 0 -- -- 48
2019-07-28 13:00:00 25.5 7 Este 18 Oeste 0 -- -- 54
2019-07-28 12:00:00 23.1 9 Noroeste 22 Noroeste 0 -- -- 63
2019-07-28 11:00:00 20.5 13 Noroeste 19 Noroeste 0 -- -- 75
2019-07-28 10:00:00 18.5 9 Noroeste 22 Noroeste 0 -- -- 86
2019-07-28 09:00:00 16.4 12 Noroeste 23 Noroeste 0 -- -- 93
2019-07-28 08:00:00 15.7 14 Noroeste 22 Noroeste 0 -- -- 97
2019-07-28 07:00:00 15.7 12 Noroeste 24 Noroeste 0 -- -- 97
2019-07-28 06:00:00 15.9 15 Noroeste 22 Noroeste 0 -- -- 97
2019-07-28 05:00:00 15.9 15 Noroeste 22 Noroeste 0 -- -- 94
2019-07-28 04:00:00 16.3 12 Noroeste 20 Noroeste 0 -- -- 91
2019-07-28 03:00:00 16.7 13 Noroeste 20 Noroeste 0 -- -- 88
2019-07-28 02:00:00 17.3 13 Noroeste 23 Oeste 0 -- -- 84
2019-07-28 01:00:00 18 14 Noroeste 26 Noroeste 0 -- -- 80
2019-07-28 00:00:00 19 13 Noroeste 19 Oeste 0 -- -- 74
2019-07-27 23:00:00 19.7 10 Noroeste 18 Noroeste 0 -- -- 67
2019-07-26 12:00:00 22 17 Norte 32 Norte 0 -- -- 57
2019-07-26 11:00:00 19.5 26 Noroeste 40 Noroeste 0 -- -- 65
2019-07-26 10:00:00 18 19 Noroeste 38 Noroeste 0 -- -- 75
2019-07-26 09:00:00 17.1 19 Noroeste 34 Norte 0 -- -- 80
2019-07-26 08:00:00 16.2 18 Noroeste 35 Noroeste 0 -- -- 82
2019-07-26 07:00:00 17.1 19 Noroeste 41 Noroeste 0 -- -- 77
2019-07-26 06:00:00 18.2 19 Noroeste 36 Noroeste 0 -- -- 79
2019-07-26 05:00:00 18.9 21 Noroeste 33 Noroeste 0 -- -- 80
2019-07-26 04:00:00 19.6 22 Noroeste 33 Noroeste 0 -- -- 80
2019-07-26 03:00:00 20.5 22 Noroeste 37 Noroeste 0 -- -- 80
2019-07-26 02:00:00 21.1 21 Noroeste 32 Noroeste 0 -- -- 80
2019-07-26 01:00:00 21.8 19 Noroeste 36 Noroeste 0 -- -- 77
2019-07-26 00:00:00 22.5 27 Noroeste 42 Noroeste 0 -- -- 75
2019-07-25 23:00:00 24.1 24 Noroeste 38 Noroeste 0 -- -- 66
2019-07-25 22:00:00 27.4 26 Noroeste 38 Noroeste 0 -- -- 52
2019-07-25 21:00:00 31.4 12 Oeste 27 Noroeste 0 -- -- 38
2019-07-25 20:00:00 32.8 15 Oeste 27 Noroeste 0 -- -- 32
2019-07-25 19:00:00 33.3 14 Noroeste 31 Noroeste 0 -- -- 28
2019-07-25 18:00:00 33.6 15 Noroeste 30 Noroeste 0 -- -- 28
2019-07-25 17:00:00 33 15 Noroeste 32 Noroeste 0 -- -- 34
2019-07-25 16:00:00 32.6 14 Noroeste 24 Oeste 0 -- -- 36
2019-07-25 15:00:00 31.3 9 Noroeste 25 Noroeste 0 -- -- 39
2019-07-25 14:00:00 30 10 Noroeste 23 Noroeste 0 -- -- 42
2019-07-25 13:00:00 28 14 Noroeste 28 Noroeste 0 -- -- 53
2019-07-25 12:00:00 25.5 17 Noroeste 28 Oeste 0 -- -- 62
2019-07-25 11:00:00 23 15 Noroeste 23 Noroeste 0 -- -- 72
2019-07-25 10:00:00 21.3 15 Noroeste 26 Noroeste 0 -- -- 80
2019-07-25 09:00:00 19 10 Oeste 15 Noroeste 0 -- -- 90
2019-07-25 08:00:00 17.6 13 Noroeste 23 Noroeste 0 -- -- 96
2019-07-25 07:00:00 17.6 13 Noroeste 21 Noroeste 0 -- -- 94
2019-07-25 06:00:00 18.1 12 Noroeste 22 Noroeste 0 -- -- 91
2019-07-25 05:00:00 18.8 15 Noroeste 22 Noroeste 0 -- -- 87
2019-07-25 04:00:00 19.3 6 Oeste 20 Oeste 0 -- -- 82
2019-07-25 03:00:00 20.4 13 Noroeste 24 Noroeste 0 -- -- 78
2019-07-25 02:00:00 22.3 14 Oeste 27 Noroeste 0 -- -- 65
2019-07-25 01:00:00 24.5 14 Oeste 24 Noroeste 0 -- -- 47
2019-07-25 00:00:00 26.9 12 Noroeste 17 Oeste 0 -- -- 37
2019-07-24 23:00:00 27.2 8 Oeste 15 Sudoeste 0 -- -- 52
2019-07-24 22:00:00 29 9 Sudoeste 30 Sudoeste 0 -- -- 45
2019-07-24 21:00:00 31 21 Sudoeste 28 Sur 0 -- -- 38
2019-07-24 20:00:00 32.4 22 Sur 30 Sur 0 -- -- 37
2019-07-24 19:00:00 33 23 Sur 36 Sur 0 -- -- 34
2019-07-24 18:00:00 33.6 21 Sur 37 Sur 0 -- -- 37
2019-07-24 17:00:00 34.3 24 Sur 36 Sur 0 -- -- 37
2019-07-24 16:00:00 35.2 14 Sudoeste 29 Sudoeste 0 -- -- 32
2019-07-24 15:00:00 35.2 12 Sudoeste 24 Sudoeste 0 -- -- 32
2019-07-24 14:00:00 33.9 6 Noroeste 19 Oeste 0 -- -- 32
2019-07-24 13:00:00 32.7 7 Noroeste 17 Noroeste 0 -- -- 33
2019-07-24 12:00:00 30.6 6 Norte 17 Sudoeste 0 -- -- 36
2019-07-24 11:00:00 28.5 6 Oeste 12 Oeste 0 -- -- 40
2019-07-24 10:00:00 25 4 Noroeste 12 Noroeste 0 -- -- 46
2019-07-24 09:00:00 21.3 9 Oeste 18 Oeste 0 -- -- 61
2019-07-24 08:00:00 19.6 10 Noroeste 19 Oeste 0 -- -- 68
2019-07-24 07:00:00 20 11 Noroeste 18 Noroeste 0 -- -- 69
2019-07-24 06:00:00 21.3 9 Noroeste 18 Oeste 0 -- -- 64
2019-07-24 05:00:00 22.6 11 Noroeste 17 Noroeste 0 -- -- 59
2019-07-24 04:00:00 23.4 9 Oeste 19 Noroeste 0 -- -- 56
2019-07-24 03:00:00 24 13 Noroeste 18 Noroeste 0 -- -- 54
2019-07-24 02:00:00 24.9 9 Noroeste 15 Noroeste 0 -- -- 49
2019-07-24 01:00:00 25.9 10 Noroeste 16 Noroeste 0 -- -- 46
2019-07-24 00:00:00 26.9 12 Noroeste 20 Oeste 0 -- -- 43